Time;durP1;ratioP1;P1;durP2;ratioP2;P2;SDS_P1;SDS_P2;PMS_P1;PMS_P2;Temp;Humidity;BMP_temperature;BMP_pressure;BME280_temperature;BME280_humidity;BME280_pressure;Samples;Min_cycle;Max_cycle;Signal;HPM_P1;HPM_P2
2022/09/09 00:02:15;;;;;;;0.25;0.25;;;;;;;;;;10410109;28;20227;-77
2022/09/09 00:07:32;;;;;;;0.13;0.13;;;;;;;;;;10419827;28;20288;-78
2022/09/09 00:12:42;;;;;;;0.70;0.70;;;;;;;;;;10415116;28;20723;-78
2022/09/09 00:17:46;;;;;;;0.13;0.13;;;;;;;;;;10414935;28;20218;-77
2022/09/09 00:22:51;;;;;;;0.08;0.08;;;;;;;;;;10420389;28;20230;-78
2022/09/09 00:27:53;;;;;;;0.20;0.20;;;;;;;;;;10417578;28;20325;-78
2022/09/09 00:32:57;;;;;;;1.20;0.20;;;;;;;;;;10415013;28;20214;-76
2022/09/09 00:38:02;;;;;;;0.08;0.08;;;;;;;;;;10396908;28;20337;-76
2022/09/09 00:43:22;;;;;;;0.10;0.10;;;;;;;;;;10388886;28;20320;-78
2022/09/09 00:48:29;;;;;;;0.00;0.00;;;;;;;;;;10413959;28;20721;-78
2022/09/09 00:53:30;;;;;;;0.00;0.00;;;;;;;;;;10410415;28;20227;-76
2022/09/09 00:58:32;;;;;;;0.10;0.10;;;;;;;;;;10416694;28;20219;-78
2022/09/09 01:03:33;;;;;;;0.10;0.10;;;;;;;;;;10417271;28;20226;-77
2022/09/09 01:08:50;;;;;;;0.13;0.13;;;;;;;;;;10408592;28;20280;-78
2022/09/09 01:13:58;;;;;;;0.15;0.15;;;;;;;;;;10390536;28;20711;-78
2022/09/09 01:19:01;;;;;;;0.15;0.15;;;;;;;;;;10395533;28;20216;-78
2022/09/09 01:24:22;;;;;;;0.10;0.10;;;;;;;;;;10402348;28;20207;-78
2022/09/09 01:29:49;;;;;;;0.00;0.00;;;;;;;;;;10406413;28;20310;-78
2022/09/09 01:34:52;;;;;;;2.17;0.22;;;;;;;;;;10405165;28;20215;-77
2022/09/09 01:39:55;;;;;;;0.05;0.05;;;;;;;;;;10401148;28;20210;-78
2022/09/09 01:44:56;;;;;;;0.05;0.05;;;;;;;;;;10378834;28;20222;-78
2022/09/09 01:49:59;;;;;;;0.00;0.00;;;;;;;;;;10361292;28;20214;-78
2022/09/09 01:55:03;;;;;;;0.00;0.00;;;;;;;;;;10389215;28;20786;-78
2022/09/09 02:00:12;;;;;;;0.20;0.20;;;;;;;;;;10384297;28;20230;-78
2022/09/09 02:05:27;;;;;;;0.10;0.10;;;;;;;;;;10392186;28;20199;-77
2022/09/09 02:10:32;;;;;;;0.00;0.00;;;;;;;;;;10383561;28;20242;-78
2022/09/09 02:15:51;;;;;;;0.00;0.00;;;;;;;;;;10383036;28;20218;-77
2022/09/09 02:20:53;;;;;;;0.00;0.00;;;;;;;;;;10372743;28;20210;-77
2022/09/09 02:25:56;;;;;;;0.00;0.00;;;;;;;;;;10386792;28;20665;-78
2022/09/09 02:31:00;;;;;;;0.00;0.00;;;;;;;;;;10396909;28;20219;-77
2022/09/09 02:36:11;;;;;;;0.10;0.10;;;;;;;;;;10394922;28;20209;-77
2022/09/09 02:41:12;;;;;;;0.15;0.00;;;;;;;;;;10393369;28;20222;-77
2022/09/09 02:46:20;;;;;;;0.00;0.00;;;;;;;;;;10394829;28;20306;-77
2022/09/09 02:51:32;;;;;;;0.00;0.00;;;;;;;;;;10405527;28;20360;-77
2022/09/09 02:56:38;;;;;;;0.00;0.00;;;;;;;;;;10396319;28;20211;-76
2022/09/09 03:01:41;;;;;;;0.10;0.10;;;;;;;;;;10398987;28;20716;-77
2022/09/09 03:06:43;;;;;;;0.00;0.00;;;;;;;;;;10408074;28;20226;-77
2022/09/09 03:11:52;;;;;;;0.00;0.00;;;;;;;;;;10402813;28;20325;-77
2022/09/09 03:16:56;;;;;;;0.00;0.00;;;;;;;;;;10393555;28;20221;-77
2022/09/09 03:21:58;;;;;;;0.65;0.52;;;;;;;;;;10403145;28;20215;-77
2022/09/09 03:26:59;;;;;;;0.00;0.00;;;;;;;;;;10384924;28;20227;-77
2022/09/09 03:32:01;;;;;;;0.00;0.00;;;;;;;;;;10390524;28;20224;-77
2022/09/09 03:37:02;;;;;;;0.08;0.00;;;;;;;;;;10386783;28;20227;-77
2022/09/09 03:42:04;;;;;;;0.00;0.00;;;;;;;;;;10410912;28;20239;-76
2022/09/09 03:47:06;;;;;;;0.00;0.00;;;;;;;;;;10399999;28;20211;-76
2022/09/09 03:52:09;;;;;;;0.57;0.30;;;;;;;;;;10406036;28;20756;-76
2022/09/09 03:57:10;;;;;;;0.00;0.00;;;;;;;;;;10412939;28;20443;-77
2022/09/09 04:02:12;;;;;;;0.00;0.00;;;;;;;;;;10370882;28;20378;-76
2022/09/09 04:07:13;;;;;;;0.25;0.25;;;;;;;;;;10381892;28;20222;-77
2022/09/09 04:12:17;;;;;;;0.10;0.10;;;;;;;;;;10395641;28;20226;-77
2022/09/09 04:17:19;;;;;;;0.10;0.10;;;;;;;;;;10386916;28;20225;-76
2022/09/09 04:22:21;;;;;;;0.00;0.00;;;;;;;;;;10386615;28;20214;-77
2022/09/09 04:27:23;;;;;;;0.28;0.20;;;;;;;;;;10413291;28;21128;-77
2022/09/09 04:32:26;;;;;;;0.20;0.20;;;;;;;;;;10374394;28;22796;-76
2022/09/09 04:37:28;;;;;;;0.10;0.10;;;;;;;;;;10376003;28;20315;-76
2022/09/09 04:42:30;;;;;;;0.00;0.00;;;;;;;;;;10389447;28;20264;-76
2022/09/09 04:47:31;;;;;;;0.10;0.10;;;;;;;;;;10393214;28;20211;-77
2022/09/09 04:52:35;;;;;;;0.65;0.10;;;;;;;;;;10377141;28;20231;-76
2022/09/09 04:57:36;;;;;;;0.00;0.00;;;;;;;;;;10414813;28;20271;-77
2022/09/09 05:02:38;;;;;;;0.10;0.10;;;;;;;;;;10415174;28;20223;-76
2022/09/09 05:07:39;;;;;;;0.17;0.17;;;;;;;;;;10374000;28;20322;-77
2022/09/09 05:12:41;;;;;;;0.10;0.10;;;;;;;;;;10399146;28;20260;-77
2022/09/09 05:17:42;;;;;;;0.15;0.15;;;;;;;;;;10399543;28;20286;-77
2022/09/09 05:22:44;;;;;;;0.25;0.25;;;;;;;;;;10400183;28;20222;-76
2022/09/09 05:27:45;;;;;;;0.10;0.10;;;;;;;;;;10394863;28;20217;-77
2022/09/09 05:32:48;;;;;;;0.10;0.10;;;;;;;;;;10407213;28;20219;-77
2022/09/09 05:37:50;;;;;;;1.85;0.90;;;;;;;;;;10389057;28;20215;-76
2022/09/09 05:42:52;;;;;;;0.00;0.00;;;;;;;;;;10392089;28;20215;-76
2022/09/09 05:47:53;;;;;;;0.10;0.10;;;;;;;;;;10411357;28;20210;-77
2022/09/09 05:52:55;;;;;;;0.05;0.05;;;;;;;;;;10382927;28;20229;-76
2022/09/09 05:57:56;;;;;;;0.38;0.38;;;;;;;;;;10407865;28;20207;-77
2022/09/09 06:02:57;;;;;;;0.17;0.17;;;;;;;;;;10377921;28;20219;-76
2022/09/09 06:07:58;;;;;;;0.00;0.00;;;;;;;;;;10388658;28;20713;-76
2022/09/09 06:12:59;;;;;;;0.43;0.20;;;;;;;;;;10391652;28;20249;-76
2022/09/09 06:18:02;;;;;;;0.00;0.00;;;;;;;;;;10391396;28;20237;-76
2022/09/09 06:23:03;;;;;;;0.45;0.20;;;;;;;;;;10376136;28;20516;-77
2022/09/09 06:28:05;;;;;;;0.35;0.35;;;;;;;;;;10382034;28;20212;-77
2022/09/09 06:33:06;;;;;;;0.00;0.00;;;;;;;;;;10384169;28;20956;-78
2022/09/09 06:38:08;;;;;;;0.00;0.00;;;;;;;;;;10383442;28;20698;-78
2022/09/09 06:43:09;;;;;;;0.38;0.38;;;;;;;;;;10360128;28;20229;-77
2022/09/09 06:48:15;;;;;;;2.40;0.30;;;;;;;;;;10385525;28;20206;-77
2022/09/09 06:53:18;;;;;;;0.00;0.00;;;;;;;;;;10401454;28;20253;-77
2022/09/09 06:58:21;;;;;;;0.00;0.00;;;;;;;;;;10387875;28;20688;-77
2022/09/09 07:03:23;;;;;;;0.00;0.00;;;;;;;;;;10380099;28;20717;-77
2022/09/09 07:08:25;;;;;;;0.10;0.10;;;;;;;;;;10372978;28;20223;-76
2022/09/09 07:13:26;;;;;;;0.10;0.10;;;;;;;;;;10384578;28;20254;-77
2022/09/09 07:18:30;;;;;;;0.00;0.00;;;;;;;;;;10394311;28;20293;-77
2022/09/09 07:23:32;;;;;;;0.00;0.00;;;;;;;;;;10375904;28;20229;-77
2022/09/09 07:28:34;;;;;;;0.10;0.10;;;;;;;;;;10367089;28;20254;-77
2022/09/09 07:33:36;;;;;;;0.08;0.08;;;;;;;;;;10376534;28;20624;-78
2022/09/09 07:38:39;;;;;;;0.03;0.03;;;;;;;;;;10373114;28;20219;-77
2022/09/09 07:43:40;;;;;;;0.10;0.10;;;;;;;;;;10365776;28;20223;-77
2022/09/09 07:48:46;;;;;;;0.00;0.00;;;;;;;;;;10394887;28;20215;-77
2022/09/09 07:53:47;;;;;;;0.00;0.00;;;;;;;;;;10401193;28;20653;-78
2022/09/09 07:58:50;;;;;;;0.00;0.00;;;;;;;;;;10379674;28;20222;-77
2022/09/09 08:03:56;;;;;;;0.00;0.00;;;;;;;;;;10368709;28;20219;-78
2022/09/09 08:08:57;;;;;;;0.05;0.05;;;;;;;;;;10368090;28;20231;-77
2022/09/09 08:13:59;;;;;;;0.20;0.20;;;;;;;;;;10358429;28;20553;-77
2022/09/09 08:19:01;;;;;;;0.00;0.00;;;;;;;;;;10352366;28;20311;-77
2022/09/09 08:24:02;;;;;;;4.18;0.43;;;;;;;;;;10374316;28;20744;-77
2022/09/09 08:29:04;;;;;;;0.10;0.10;;;;;;;;;;10378252;28;20211;-77
2022/09/09 08:34:07;;;;;;;0.00;0.00;;;;;;;;;;10348660;28;20680;-77
2022/09/09 08:39:09;;;;;;;0.00;0.00;;;;;;;;;;10350568;28;20314;-77
2022/09/09 08:44:14;;;;;;;1.17;0.57;;;;;;;;;;10352164;28;20466;-77
2022/09/09 08:49:37;;;;;;;0.00;0.00;;;;;;;;;;10364190;28;20226;-77
2022/09/09 08:54:39;;;;;;;0.00;0.00;;;;;;;;;;10371038;28;20659;-78
2022/09/09 08:59:40;;;;;;;0.10;0.10;;;;;;;;;;10369591;28;20242;-77
2022/09/09 09:04:55;;;;;;;0.00;0.00;;;;;;;;;;10348537;28;20206;-77
2022/09/09 09:10:08;;;;;;;0.10;0.10;;;;;;;;;;10318348;28;20310;-77
2022/09/09 09:15:21;;;;;;;0.00;0.00;;;;;;;;;;10311382;28;20213;-79
2022/09/09 09:20:33;;;;;;;0.00;0.00;;;;;;;;;;10292837;28;20213;-77
2022/09/09 09:25:36;;;;;;;0.00;0.00;;;;;;;;;;10306006;28;20217;-79
2022/09/09 09:30:41;;;;;;;1.88;0.20;;;;;;;;;;10325977;28;20228;-79
2022/09/09 09:35:45;;;;;;;0.00;0.00;;;;;;;;;;10310133;28;20208;-79
2022/09/09 09:40:57;;;;;;;0.10;0.10;;;;;;;;;;10311245;28;20213;-78
2022/09/09 09:45:59;;;;;;;0.00;0.00;;;;;;;;;;10323588;28;20965;-79
2022/09/09 09:51:10;;;;;;;0.10;0.10;;;;;;;;;;10303190;28;20216;-79
2022/09/09 09:56:14;;;;;;;0.05;0.05;;;;;;;;;;10322214;28;20304;-79
2022/09/09 10:01:21;;;;;;;0.00;0.00;;;;;;;;;;10304096;28;20230;-78
2022/09/09 10:06:32;;;;;;;0.00;0.00;;;;;;;;;;10338496;28;20231;-79
2022/09/09 10:11:50;;;;;;;0.25;0.25;;;;;;;;;;10387810;28;20250;-79
2022/09/09 10:17:08;;;;;;;0.00;0.00;;;;;;;;;;10400561;28;21495;-79
2022/09/09 10:22:09;;;;;;;0.03;0.03;;;;;;;;;;10390015;28;20223;-79
2022/09/09 10:27:12;;;;;;;0.52;0.52;;;;;;;;;;10397047;28;20207;-78
2022/09/09 10:32:32;;;;;;;0.65;0.25;;;;;;;;;;10405620;28;20211;-78
2022/09/09 10:37:52;;;;;;;0.00;0.00;;;;;;;;;;10400906;28;20258;-79
2022/09/09 10:42:58;;;;;;;16.90;0.28;;;;;;;;;;10399485;28;20219;-78
2022/09/09 10:48:14;;;;;;;0.00;0.00;;;;;;;;;;10394922;28;20751;-79
2022/09/09 10:53:19;;;;;;;0.17;0.05;;;;;;;;;;10390236;28;20234;-79
2022/09/09 10:58:23;;;;;;;0.00;0.00;;;;;;;;;;10393166;28;20222;-79
2022/09/09 11:03:27;;;;;;;0.28;0.28;;;;;;;;;;10397336;28;20296;-78
2022/09/09 11:08:29;;;;;;;0.10;0.10;;;;;;;;;;10401185;28;20835;-79
2022/09/09 11:13:33;;;;;;;0.00;0.00;;;;;;;;;;10391322;28;20367;-79
2022/09/09 11:18:38;;;;;;;0.00;0.00;;;;;;;;;;10397014;28;20299;-79
2022/09/09 11:23:42;;;;;;;0.00;0.00;;;;;;;;;;10380662;28;20667;-79
2022/09/09 11:29:10;;;;;;;0.22;0.22;;;;;;;;;;10425147;28;20491;-79
2022/09/09 11:34:23;;;;;;;0.00;0.00;;;;;;;;;;10371705;28;20223;-77
2022/09/09 11:39:36;;;;;;;0.00;0.00;;;;;;;;;;10402092;28;20531;-79
2022/09/09 11:44:37;;;;;;;0.00;0.00;;;;;;;;;;10410883;28;20306;-79
2022/09/09 11:49:39;;;;;;;0.38;0.38;;;;;;;;;;10414133;28;20207;-78
2022/09/09 11:54:50;;;;;;;0.10;0.10;;;;;;;;;;10416777;28;20219;-79
2022/09/09 11:59:55;;;;;;;0.10;0.10;;;;;;;;;;10415954;28;20583;-79
2022/09/09 12:05:11;;;;;;;0.00;0.00;;;;;;;;;;10408575;28;20225;-80
2022/09/09 12:10:32;;;;;;;0.00;0.00;;;;;;;;;;10413888;28;20230;-79
2022/09/09 12:15:33;;;;;;;6.18;0.57;;;;;;;;;;10400257;28;20219;-79
2022/09/09 12:20:35;;;;;;;0.20;0.20;;;;;;;;;;10408513;28;20211;-80
2022/09/09 12:25:55;;;;;;;0.00;0.00;;;;;;;;;;10426230;28;20219;-79
2022/09/09 12:30:58;;;;;;;0.10;0.10;;;;;;;;;;10416163;28;20247;-79
2022/09/09 12:36:00;;;;;;;0.00;0.00;;;;;;;;;;10411157;28;20218;-79
2022/09/09 12:41:01;;;;;;;0.00;0.00;;;;;;;;;;10404566;28;20211;-80
2022/09/09 12:46:04;;;;;;;0.10;0.10;;;;;;;;;;10412791;28;20273;-80
2022/09/09 12:51:07;;;;;;;0.00;0.00;;;;;;;;;;10422864;28;20222;-76
2022/09/09 12:56:18;;;;;;;0.10;0.10;;;;;;;;;;10405995;28;20215;-76
2022/09/09 13:01:22;;;;;;;0.00;0.00;;;;;;;;;;10369750;28;20225;-77
2022/09/09 13:06:41;;;;;;;3.25;1.25;;;;;;;;;;10415498;28;20234;-78
2022/09/09 13:11:47;;;;;;;0.00;0.00;;;;;;;;;;10396132;28;20250;-80
2022/09/09 13:17:01;;;;;;;0.00;0.00;;;;;;;;;;10400567;28;20215;-79
2022/09/09 13:22:20;;;;;;;0.22;0.20;;;;;;;;;;10375285;28;20772;-79
2022/09/09 13:27:28;;;;;;;0.00;0.00;;;;;;;;;;10403006;28;20219;-78
2022/09/09 13:32:31;;;;;;;0.03;0.03;;;;;;;;;;10419208;28;20302;-78
2022/09/09 13:37:36;;;;;;;0.35;0.22;;;;;;;;;;10434494;28;20679;-79
2022/09/09 13:42:42;;;;;;;4.50;0.38;;;;;;;;;;10412351;28;20218;-78
2022/09/09 13:47:43;;;;;;;0.00;0.00;;;;;;;;;;10421342;28;20207;-79
2022/09/09 13:52:44;;;;;;;0.00;0.00;;;;;;;;;;10462331;28;20219;-78
2022/09/09 13:57:53;;;;;;;0.47;0.47;;;;;;;;;;10448169;28;20215;-78
2022/09/09 14:02:54;;;;;;;2.85;0.13;;;;;;;;;;10459555;28;20643;-77
2022/09/09 14:07:56;;;;;;;0.00;0.00;;;;;;;;;;10441630;28;20230;-78
2022/09/09 14:12:57;;;;;;;0.00;0.00;;;;;;;;;;10458817;28;20230;-78
2022/09/09 14:17:58;;;;;;;0.00;0.00;;;;;;;;;;10450050;28;20752;-78
2022/09/09 14:22:59;;;;;;;0.00;0.00;;;;;;;;;;10462377;28;20218;-75
2022/09/09 14:28:01;;;;;;;1.35;0.00;;;;;;;;;;10449164;28;20236;-78
2022/09/09 14:33:02;;;;;;;1.75;0.20;;;;;;;;;;10441325;28;20215;-76
2022/09/09 14:38:04;;;;;;;2.97;0.17;;;;;;;;;;10426357;28;20253;-77
2022/09/09 14:43:05;;;;;;;0.00;0.00;;;;;;;;;;10423029;28;20231;-79
2022/09/09 14:48:06;;;;;;;3.15;0.47;;;;;;;;;;10443521;28;20289;-76
2022/09/09 14:53:08;;;;;;;0.00;0.00;;;;;;;;;;10432290;28;20241;-78
2022/09/09 14:58:09;;;;;;;0.00;0.00;;;;;;;;;;10420305;28;20219;-79
2022/09/09 15:03:10;;;;;;;0.73;0.70;;;;;;;;;;10409898;28;20211;-79
2022/09/09 15:08:11;;;;;;;0.00;0.00;;;;;;;;;;10394443;28;20655;-79
2022/09/09 15:13:12;;;;;;;0.00;0.00;;;;;;;;;;10422169;28;20378;-76
2022/09/09 15:18:15;;;;;;;0.00;0.00;;;;;;;;;;10381371;28;20203;-79
2022/09/09 15:23:17;;;;;;;0.00;0.00;;;;;;;;;;10380648;28;20214;-79
2022/09/09 15:28:18;;;;;;;0.00;0.00;;;;;;;;;;10420224;28;20668;-79
2022/09/09 15:33:19;;;;;;;0.00;0.00;;;;;;;;;;10412571;28;20222;-79
2022/09/09 15:38:20;;;;;;;0.00;0.00;;;;;;;;;;10423255;28;20261;-79
2022/09/09 15:43:22;;;;;;;0.00;0.00;;;;;;;;;;10425400;28;20497;-79
2022/09/09 15:48:30;;;;;;;0.00;0.00;;;;;;;;;;10431142;28;20597;-79
2022/09/09 15:53:34;;;;;;;0.00;0.00;;;;;;;;;;10436407;28;20324;-79
2022/09/09 15:58:36;;;;;;;0.00;0.00;;;;;;;;;;10421925;28;20215;-79
2022/09/09 16:03:37;;;;;;;0.10;0.10;;;;;;;;;;10432654;28;20215;-79
2022/09/09 16:08:40;;;;;;;0.30;0.28;;;;;;;;;;10435803;28;20769;-79
2022/09/09 16:13:42;;;;;;;0.00;0.00;;;;;;;;;;10435701;28;20314;-79
2022/09/09 16:18:47;;;;;;;0.00;0.00;;;;;;;;;;10434099;28;20302;-78
2022/09/09 16:23:49;;;;;;;0.10;0.10;;;;;;;;;;10432530;28;20219;-78
2022/09/09 16:28:50;;;;;;;0.03;0.03;;;;;;;;;;10449214;28;20214;-78
2022/09/09 16:33:51;;;;;;;0.98;0.13;;;;;;;;;;10454478;28;20207;-78
2022/09/09 16:38:57;;;;;;;0.00;0.00;;;;;;;;;;10436760;28;20249;-79
2022/09/09 16:43:59;;;;;;;0.22;0.22;;;;;;;;;;10405396;28;20711;-79
2022/09/09 16:49:01;;;;;;;5.38;0.47;;;;;;;;;;10409102;28;20298;-79
2022/09/09 16:54:03;;;;;;;0.10;0.10;;;;;;;;;;10419767;28;20840;-80
2022/09/09 16:59:06;;;;;;;0.00;0.00;;;;;;;;;;10400167;28;20226;-79
2022/09/09 17:04:08;;;;;;;0.00;0.00;;;;;;;;;;10415236;28;20210;-78
2022/09/09 17:09:11;;;;;;;0.00;0.00;;;;;;;;;;10416104;28;20460;-78
2022/09/09 17:14:14;;;;;;;0.00;0.00;;;;;;;;;;10372155;28;20235;-80
2022/09/09 17:19:15;;;;;;;0.00;0.00;;;;;;;;;;10410969;28;20441;-78
2022/09/09 17:24:16;;;;;;;1.25;0.25;;;;;;;;;;10411504;28;20302;-78
2022/09/09 17:29:17;;;;;;;0.00;0.00;;;;;;;;;;10413525;28;20223;-77
2022/09/09 17:34:18;;;;;;;0.00;0.00;;;;;;;;;;10409914;28;21188;-79
2022/09/09 17:39:19;;;;;;;0.10;0.10;;;;;;;;;;10414844;28;20224;-79
2022/09/09 17:44:20;;;;;;;0.05;0.05;;;;;;;;;;10413586;28;20214;-79
2022/09/09 17:49:21;;;;;;;0.00;0.00;;;;;;;;;;10415262;28;20890;-78
2022/09/09 17:54:22;;;;;;;0.20;0.20;;;;;;;;;;10410250;28;20246;-78
2022/09/09 17:59:24;;;;;;;0.00;0.00;;;;;;;;;;10415917;28;20215;-79
2022/09/09 18:04:25;;;;;;;0.00;0.00;;;;;;;;;;10407344;28;20270;-79
2022/09/09 18:09:28;;;;;;;0.30;0.30;;;;;;;;;;10416590;28;20771;-79
2022/09/09 18:14:30;;;;;;;0.10;0.10;;;;;;;;;;10420058;28;20545;-78
2022/09/09 18:19:31;;;;;;;0.00;0.00;;;;;;;;;;10415347;28;20538;-79
2022/09/09 18:24:33;;;;;;;0.15;0.15;;;;;;;;;;10422944;28;20246;-79
2022/09/09 18:29:34;;;;;;;0.03;0.00;;;;;;;;;;10412487;28;20741;-79
2022/09/09 18:34:35;;;;;;;0.13;0.13;;;;;;;;;;10427432;28;20762;-79
2022/09/09 18:39:36;;;;;;;0.00;0.00;;;;;;;;;;10413336;28;20211;-80
2022/09/09 18:44:37;;;;;;;0.05;0.05;;;;;;;;;;10409134;28;20219;-79
2022/09/09 18:49:38;;;;;;;0.10;0.10;;;;;;;;;;10400098;28;20309;-78
2022/09/09 18:54:42;;;;;;;0.00;0.00;;;;;;;;;;10436622;28;20227;-78
2022/09/09 18:59:44;;;;;;;0.20;0.05;;;;;;;;;;10430042;28;20765;-79
2022/09/09 19:04:45;;;;;;;0.63;0.63;;;;;;;;;;10404032;28;20706;-77
2022/09/09 19:09:46;;;;;;;0.10;0.10;;;;;;;;;;10418698;28;20218;-78
2022/09/09 19:14:47;;;;;;;1.38;0.40;;;;;;;;;;10419252;28;20262;-78
2022/09/09 19:19:50;;;;;;;2.13;1.20;;;;;;;;;;10412939;28;20478;-77
2022/09/09 19:24:51;;;;;;;1.38;0.10;;;;;;;;;;10411648;28;21013;-78
2022/09/09 19:29:52;;;;;;;0.00;0.00;;;;;;;;;;10421101;28;20504;-76
2022/09/09 19:34:53;;;;;;;0.00;0.00;;;;;;;;;;10419036;28;20219;-78
2022/09/09 19:39:54;;;;;;;0.40;0.40;;;;;;;;;;10416093;28;23605;-76
2022/09/09 19:44:56;;;;;;;0.10;0.10;;;;;;;;;;10420327;28;20215;-78
2022/09/09 19:49:57;;;;;;;0.10;0.10;;;;;;;;;;10418961;28;20481;-78
2022/09/09 19:54:58;;;;;;;0.10;0.10;;;;;;;;;;10406379;28;20240;-77
2022/09/09 19:59:59;;;;;;;0.00;0.00;;;;;;;;;;10419544;28;20203;-77
2022/09/09 20:05:00;;;;;;;0.38;0.38;;;;;;;;;;10428139;28;20302;-77
2022/09/09 20:10:01;;;;;;;0.50;0.50;;;;;;;;;;10419177;28;20325;-77
2022/09/09 20:15:02;;;;;;;0.10;0.10;;;;;;;;;;10426082;28;20196;-77
2022/09/09 20:20:04;;;;;;;0.10;0.10;;;;;;;;;;10418937;28;20213;-78
2022/09/09 20:25:05;;;;;;;0.38;0.38;;;;;;;;;;10417541;28;20264;-78
2022/09/09 20:30:06;;;;;;;3.30;0.20;;;;;;;;;;10424241;28;20237;-78
2022/09/09 20:35:08;;;;;;;0.20;0.20;;;;;;;;;;10418389;28;20394;-76
2022/09/09 20:40:09;;;;;;;0.70;0.68;;;;;;;;;;10403822;28;20226;-77
2022/09/09 20:45:14;;;;;;;0.00;0.00;;;;;;;;;;10403806;28;20258;-77
2022/09/09 20:50:16;;;;;;;0.10;0.10;;;;;;;;;;10416053;28;21111;-78
2022/09/09 20:55:16;;;;;;;0.25;0.13;;;;;;;;;;10414742;28;20294;-76
2022/09/09 21:00:18;;;;;;;0.10;0.10;;;;;;;;;;10425010;28;20242;-77
2022/09/09 21:05:18;;;;;;;0.10;0.10;;;;;;;;;;10425981;28;20321;-77
2022/09/09 21:10:20;;;;;;;0.52;0.20;;;;;;;;;;10424518;28;20234;-77
2022/09/09 21:15:21;;;;;;;0.57;0.57;;;;;;;;;;10426271;28;20197;-76
2022/09/09 21:20:22;;;;;;;0.10;0.10;;;;;;;;;;10439588;28;20229;-78
2022/09/09 21:25:23;;;;;;;0.30;0.30;;;;;;;;;;10422365;28;20222;-78
2022/09/09 21:30:24;;;;;;;0.05;0.05;;;;;;;;;;10403760;28;21078;-78
2022/09/09 21:35:25;;;;;;;0.40;0.08;;;;;;;;;;10424702;28;20202;-78
2022/09/09 21:40:26;;;;;;;0.00;0.00;;;;;;;;;;10416016;28;20241;-78
2022/09/09 21:45:27;;;;;;;0.00;0.00;;;;;;;;;;10425034;28;21058;-78
2022/09/09 21:50:28;;;;;;;0.00;0.00;;;;;;;;;;10421637;28;20338;-79
2022/09/09 21:55:33;;;;;;;0.00;0.00;;;;;;;;;;10415711;28;20317;-78
2022/09/09 22:00:34;;;;;;;0.00;0.00;;;;;;;;;;10421314;28;20706;-77
2022/09/09 22:05:39;;;;;;;0.00;0.00;;;;;;;;;;10416055;28;20248;-78
2022/09/09 22:10:41;;;;;;;0.05;0.05;;;;;;;;;;10416918;28;20237;-78
2022/09/09 22:15:43;;;;;;;0.20;0.20;;;;;;;;;;10424807;28;20227;-79
2022/09/09 22:20:46;;;;;;;0.00;0.00;;;;;;;;;;10425836;28;20303;-79
2022/09/09 22:25:49;;;;;;;0.00;0.00;;;;;;;;;;10426990;28;20277;-78
2022/09/09 22:30:50;;;;;;;1.08;0.38;;;;;;;;;;10427449;28;20246;-78
2022/09/09 22:35:51;;;;;;;0.00;0.00;;;;;;;;;;10423045;28;20256;-77
2022/09/09 22:40:52;;;;;;;0.00;0.00;;;;;;;;;;10427720;28;20203;-78
2022/09/09 22:45:53;;;;;;;0.00;0.00;;;;;;;;;;10425647;28;20249;-78
2022/09/09 22:51:00;;;;;;;0.00;0.00;;;;;;;;;;10428745;28;20253;-79
2022/09/09 22:56:03;;;;;;;0.00;0.00;;;;;;;;;;10415031;28;20223;-78
2022/09/09 23:01:13;;;;;;;0.00;0.00;;;;;;;;;;10411250;28;20212;-78
2022/09/09 23:06:20;;;;;;;0.00;0.00;;;;;;;;;;10422207;28;20219;-78
2022/09/09 23:11:22;;;;;;;0.03;0.03;;;;;;;;;;10421878;28;20219;-77
2022/09/09 23:16:24;;;;;;;0.00;0.00;;;;;;;;;;10415101;28;20217;-77
2022/09/09 23:21:27;;;;;;;0.25;0.10;;;;;;;;;;10427506;28;20238;-78
2022/09/09 23:26:28;;;;;;;0.00;0.00;;;;;;;;;;10425051;28;20215;-78
2022/09/09 23:31:32;;;;;;;0.00;0.00;;;;;;;;;;10433164;28;20339;-78
2022/09/09 23:36:33;;;;;;;0.00;0.00;;;;;;;;;;10425481;28;20219;-78
2022/09/09 23:41:35;;;;;;;0.10;0.00;;;;;;;;;;10416795;28;20341;-77
2022/09/09 23:46:36;;;;;;;0.00;0.00;;;;;;;;;;10416019;28;20278;-77
2022/09/09 23:51:37;;;;;;;0.00;0.00;;;;;;;;;;10431665;28;20299;-78
2022/09/09 23:56:40;;;;;;;0.00;0.00;;;;;;;;;;10424621;28;20252;-78
